Annandale, New York
Current Conditions -  °F | °C
As of 3:53 PM on Thursday 23 Oct 2014 (Local Time) from KPOU Reporting Station
Overcast Overcast  
Wind Chill: 10°   Ceiling: 1400
Heat Index: 10°   Visibility: 10mi
Dew Point:   Wind: 15mph
Humidity: 83%   Direction: 360°N
Pressure: 29.74"   Gusts: 26mph
Location:  42.0124°N, 73.8998°W
Report Text: KPOU 231953Z 36013G23KT 10SM OVC014 10/07 A2974 RMK AO2 RAB15E24 SLP068 P0000 T01000072
Loading
Personal Weather Stations






























Interactive Weather Map
Tropical Storm Tracking
New forecast layout! Learn more

10-Day Weather Forecast

Advertisements
Track Severe Weather on mobile